Time;durP1;ratioP1;P1;durP2;ratioP2;P2;SDS_P1;SDS_P2;PMS_P1;PMS_P2;Temp;Humidity;BMP_temperature;BMP_pressure;BME280_temperature;BME280_humidity;BME280_pressure;Samples;Min_cycle;Max_cycle;Signal;HPM_P1;HPM_P2
2023/06/30 00:02:11;;;;;;;21.70;10.57;;;;;;;-144.87;100.00;61487.56;4987129;28;20110;-72
2023/06/30 00:04:38;;;;;;;34.65;11.23;;;;;;;-144.87;100.00;61487.56;4975423;28;20050;-72
2023/06/30 00:07:05;;;;;;;33.17;12.68;;;;;;;-144.87;100.00;61487.56;4973127;28;20030;-71
2023/06/30 00:09:31;;;;;;;22.15;10.98;;;;;;;-144.87;100.00;61487.56;4973245;28;20031;-71
2023/06/30 00:11:58;;;;;;;27.90;11.18;;;;;;;-144.87;100.00;61487.56;4973182;28;20515;-72
2023/06/30 00:14:24;;;;;;;27.67;12.70;;;;;;;-144.87;100.00;61487.56;4969629;28;20060;-72
2023/06/30 00:16:50;;;;;;;35.50;12.95;;;;;;;-144.87;100.00;61487.56;4955091;29;20035;-71
2023/06/30 00:19:18;;;;;;;24.70;10.65;;;;;;;-144.87;100.00;61487.56;4964151;28;20035;-72
2023/06/30 00:21:45;;;;;;;22.05;10.35;;;;;;;-144.87;100.00;61487.56;4958029;28;20505;-72
2023/06/30 00:24:13;;;;;;;26.65;10.65;;;;;;;-144.87;100.00;61487.56;4972967;28;20066;-71
2023/06/30 00:26:40;;;;;;;21.13;10.65;;;;;;;-144.87;100.00;61487.56;4971424;28;20054;-71
2023/06/30 00:29:07;;;;;;;30.10;12.32;;;;;;;-144.87;100.00;61487.56;4953749;29;20078;-71
2023/06/30 00:31:33;;;;;;;26.13;11.27;;;;;;;-144.87;100.00;61487.56;4938562;28;20086;-72
2023/06/30 00:33:59;;;;;;;26.10;11.88;;;;;;;-144.87;100.00;61487.56;4974544;28;20043;-72
2023/06/30 00:36:26;;;;;;;23.65;11.43;;;;;;;-144.87;100.00;61487.56;4973108;28;20046;-72
2023/06/30 00:38:54;;;;;;;29.00;10.82;;;;;;;-144.87;100.00;61487.56;4956126;28;20100;-71
2023/06/30 00:41:21;;;;;;;31.33;11.88;;;;;;;-144.87;100.00;61487.56;4952707;29;20119;-72
2023/06/30 00:43:48;;;;;;;29.13;11.32;;;;;;;-144.87;100.00;61487.56;4972046;28;20381;-71
2023/06/30 00:46:17;;;;;;;26.40;11.70;;;;;;;-144.87;100.00;61487.56;4972937;28;20035;-72
2023/06/30 00:48:44;;;;;;;31.02;11.80;;;;;;;-144.87;100.00;61487.56;4968602;28;20043;-72
2023/06/30 00:51:12;;;;;;;21.55;10.68;;;;;;;-144.87;100.00;61487.56;4958444;28;20035;-72
2023/06/30 00:53:39;;;;;;;22.25;11.20;;;;;;;-144.87;100.00;61487.56;4952793;28;20100;-71
2023/06/30 00:56:05;;;;;;;22.23;10.27;;;;;;;-144.87;100.00;61487.56;4972613;28;20048;-71
2023/06/30 00:58:32;;;;;;;26.17;10.80;;;;;;;-144.87;100.00;61487.56;4956271;28;20039;-72
2023/06/30 01:01:22;;;;;;;32.65;11.48;;;;;;;-144.87;100.00;61487.56;4971112;28;20392;-72
2023/06/30 01:03:53;;;;;;;24.15;10.57;;;;;;;-144.87;100.00;61487.56;4948704;28;20456;-72
2023/06/30 01:06:29;;;;;;;18.00;10.23;;;;;;;-144.87;100.00;61487.56;4969115;28;20157;-71
2023/06/30 01:09:10;;;;;;;22.15;10.70;;;;;;;-144.87;100.00;61487.56;4967476;28;20041;-71
2023/06/30 01:11:36;;;;;;;21.98;9.68;;;;;;;-144.87;100.00;61487.56;4971547;28;20074;-71
2023/06/30 01:14:04;;;;;;;26.38;10.45;;;;;;;-144.87;100.00;61487.56;4968129;28;20039;-71
2023/06/30 01:16:31;;;;;;;22.55;10.32;;;;;;;-144.87;100.00;61487.56;4954313;29;20031;-71
2023/06/30 01:18:58;;;;;;;24.75;9.63;;;;;;;-144.87;100.00;61487.56;4965497;28;20045;-71
2023/06/30 01:21:25;;;;;;;27.08;10.32;;;;;;;-144.87;100.00;61487.56;4972757;28;20373;-70
2023/06/30 01:24:03;;;;;;;22.25;9.95;;;;;;;-144.87;100.00;61487.56;4973028;28;20087;-71
2023/06/30 01:26:34;;;;;;;24.83;10.40;;;;;;;-144.87;100.00;61487.56;4937451;28;20035;-71
2023/06/30 01:29:04;;;;;;;33.45;9.88;;;;;;;-144.87;100.00;61487.56;4955970;28;20066;-72
2023/06/30 01:31:31;;;;;;;20.42;9.10;;;;;;;-144.87;100.00;61487.56;4956046;28;20384;-70
2023/06/30 01:33:59;;;;;;;24.58;9.90;;;;;;;-144.87;100.00;61487.56;4953523;28;20043;-71
2023/06/30 01:36:26;;;;;;;34.70;10.82;;;;;;;-144.87;100.00;61487.56;4971445;28;20031;-71
2023/06/30 01:38:53;;;;;;;20.10;9.00;;;;;;;-144.87;100.00;61487.56;4965519;28;20110;-72
2023/06/30 01:41:21;;;;;;;23.10;9.57;;;;;;;-144.87;100.00;61487.56;4974671;28;20129;-72
2023/06/30 01:43:49;;;;;;;19.60;9.40;;;;;;;-144.87;100.00;61487.56;4954039;29;20102;-72
2023/06/30 01:46:16;;;;;;;18.30;9.15;;;;;;;-144.87;100.00;61487.56;4954737;28;20117;-72
2023/06/30 01:48:43;;;;;;;23.33;9.13;;;;;;;-144.87;100.00;61487.56;4968024;28;20031;-72
2023/06/30 01:51:13;;;;;;;23.67;10.27;;;;;;;-144.87;100.00;61487.56;4965298;28;20082;-71
2023/06/30 01:53:39;;;;;;;21.08;10.18;;;;;;;-144.87;100.00;61487.56;4962459;28;20121;-72
2023/06/30 01:56:06;;;;;;;20.27;9.25;;;;;;;-144.87;100.00;61487.56;4967130;28;20411;-72
2023/06/30 01:58:32;;;;;;;24.27;9.57;;;;;;;-144.87;100.00;61487.56;4950990;28;20031;-72
2023/06/30 02:00:58;;;;;;;18.27;9.32;;;;;;;-144.87;100.00;61487.56;4965178;28;20034;-72
2023/06/30 02:03:25;;;;;;;29.25;10.20;;;;;;;-144.87;100.00;61487.56;4961768;28;20042;-71
2023/06/30 02:05:51;;;;;;;26.08;10.57;;;;;;;-144.87;100.00;61487.56;4965590;28;20065;-72
2023/06/30 02:08:18;;;;;;;18.55;9.55;;;;;;;-144.87;100.00;61487.56;4968742;28;20071;-72
2023/06/30 02:10:45;;;;;;;25.70;10.15;;;;;;;-144.87;100.00;61487.56;4964977;28;20129;-71
2023/06/30 02:13:14;;;;;;;26.05;10.32;;;;;;;-144.87;100.00;61487.56;4980209;28;20042;-73
2023/06/30 02:15:41;;;;;;;23.63;11.32;;;;;;;-144.87;100.00;61487.56;4951278;28;20038;-71
2023/06/30 02:18:07;;;;;;;18.00;10.27;;;;;;;-144.87;100.00;61487.56;4966808;28;20588;-71
2023/06/30 02:20:35;;;;;;;20.98;10.63;;;;;;;-144.87;100.00;61487.56;4963289;28;20094;-72
2023/06/30 02:23:02;;;;;;;25.20;10.88;;;;;;;-144.87;100.00;61487.56;4945122;28;20034;-71
2023/06/30 02:25:28;;;;;;;29.02;11.65;;;;;;;-144.87;100.00;61487.56;4960958;28;20066;-71
2023/06/30 02:27:55;;;;;;;17.35;10.13;;;;;;;-144.87;100.00;61487.56;4963071;28;20050;-71
2023/06/30 02:30:21;;;;;;;24.10;11.43;;;;;;;-144.87;100.00;61487.56;4950109;28;20126;-71
2023/06/30 02:32:47;;;;;;;21.65;10.77;;;;;;;-144.87;100.00;61487.56;4961074;28;20042;-71
2023/06/30 02:35:14;;;;;;;27.05;12.02;;;;;;;-144.87;100.00;61487.56;4959304;28;20058;-71
2023/06/30 02:37:40;;;;;;;24.23;12.00;;;;;;;-144.87;100.00;61487.56;4966183;28;20475;-72
2023/06/30 02:40:08;;;;;;;21.88;12.10;;;;;;;-144.87;100.00;61487.56;4959191;28;20377;-72
2023/06/30 02:42:35;;;;;;;22.20;11.45;;;;;;;-144.87;100.00;61487.56;4965656;28;20031;-72
2023/06/30 02:45:01;;;;;;;24.50;12.20;;;;;;;-144.87;100.00;61487.56;4963184;28;20039;-72
2023/06/30 02:47:27;;;;;;;22.67;11.82;;;;;;;-144.87;100.00;61487.56;4961699;28;20074;-72
2023/06/30 02:49:54;;;;;;;19.50;12.10;;;;;;;-144.87;100.00;61487.56;4963985;28;20047;-71
2023/06/30 02:52:20;;;;;;;24.98;11.95;;;;;;;-144.87;100.00;61487.56;4953535;28;20191;-71
2023/06/30 02:54:47;;;;;;;22.70;11.00;;;;;;;-144.87;100.00;61487.56;4970412;28;20039;-72
2023/06/30 02:57:14;;;;;;;23.45;10.88;;;;;;;-144.87;100.00;61487.56;4960405;28;20118;-72
2023/06/30 02:59:41;;;;;;;25.13;12.70;;;;;;;-144.87;100.00;61487.56;4940962;28;20046;-72
2023/06/30 03:02:08;;;;;;;24.02;11.68;;;;;;;-144.87;100.00;61487.56;4909803;29;20044;-72
2023/06/30 03:04:35;;;;;;;23.05;11.18;;;;;;;-144.87;100.00;61487.56;4899221;29;20148;-71
2023/06/30 03:07:02;;;;;;;25.80;11.73;;;;;;;-144.87;100.00;61487.56;4899122;29;20386;-71
2023/06/30 03:09:28;;;;;;;23.73;11.18;;;;;;;-144.87;100.00;61487.56;4898486;29;20082;-71
2023/06/30 03:11:54;;;;;;;21.83;10.82;;;;;;;-144.87;100.00;61487.56;4929427;29;20440;-73
2023/06/30 03:14:22;;;;;;;24.23;11.60;;;;;;;-144.87;100.00;61487.56;4912950;29;20070;-71
2023/06/30 03:16:49;;;;;;;24.13;10.38;;;;;;;-144.87;100.00;61487.56;4915266;29;20123;-72
2023/06/30 03:19:16;;;;;;;25.45;11.65;;;;;;;-144.87;100.00;61487.56;4914576;29;20083;-70
2023/06/30 03:21:42;;;;;;;19.83;11.23;;;;;;;-144.87;100.00;61487.56;4930787;29;20126;-72
2023/06/30 03:24:08;;;;;;;25.35;11.73;;;;;;;-144.87;100.00;61487.56;4898442;29;20042;-71
2023/06/30 03:26:35;;;;;;;22.77;11.73;;;;;;;-144.87;100.00;61487.56;4912762;29;20050;-72
2023/06/30 03:29:01;;;;;;;28.67;11.73;;;;;;;-144.87;100.00;61487.56;4920668;29;20048;-71
2023/06/30 03:31:28;;;;;;;24.17;11.52;;;;;;;-144.87;100.00;61487.56;4914401;29;20126;-71
2023/06/30 03:33:55;;;;;;;26.02;11.88;;;;;;;-144.87;100.00;61487.56;4943856;28;20130;-71
2023/06/30 03:36:21;;;;;;;22.67;11.93;;;;;;;-144.87;100.00;61487.56;4954799;28;20091;-72
2023/06/30 03:38:48;;;;;;;27.30;12.20;;;;;;;-144.87;100.00;61487.56;4958687;28;20105;-71
2023/06/30 03:41:14;;;;;;;23.77;11.90;;;;;;;-144.87;100.00;61487.56;4970918;28;20045;-71
2023/06/30 03:43:40;;;;;;;25.60;11.40;;;;;;;-144.87;100.00;61487.56;4971019;28;20039;-71
2023/06/30 03:46:06;;;;;;;22.67;12.30;;;;;;;-144.87;100.00;61487.56;4951778;28;20130;-73
2023/06/30 03:48:33;;;;;;;37.38;13.48;;;;;;;-144.87;100.00;61487.56;4961508;28;20255;-73
2023/06/30 03:50:59;;;;;;;22.05;11.23;;;;;;;-144.87;100.00;61487.56;4963620;28;20579;-71
2023/06/30 03:53:25;;;;;;;32.80;12.77;;;;;;;-144.87;100.00;61487.56;4968386;28;20121;-72
2023/06/30 03:55:52;;;;;;;22.95;11.43;;;;;;;-144.87;100.00;61487.56;4948305;29;20027;-73
2023/06/30 03:58:18;;;;;;;25.80;12.20;;;;;;;-144.87;100.00;61487.56;4963629;28;20492;-72
2023/06/30 04:00:44;;;;;;;22.83;12.02;;;;;;;-144.87;100.00;61487.56;4969079;28;20034;-72
2023/06/30 04:03:11;;;;;;;26.92;12.38;;;;;;;-144.87;100.00;61487.56;4968786;28;20040;-72
2023/06/30 04:05:38;;;;;;;24.40;10.73;;;;;;;-144.87;100.00;61487.56;4967774;28;20063;-73
2023/06/30 04:08:04;;;;;;;22.83;12.10;;;;;;;-144.87;100.00;61487.56;4970285;28;20046;-71
2023/06/30 04:10:30;;;;;;;24.25;11.75;;;;;;;-144.87;100.00;61487.56;4949795;28;20035;-71
2023/06/30 04:12:57;;;;;;;21.85;11.55;;;;;;;-144.87;100.00;61487.56;4950445;29;20044;-71
2023/06/30 04:15:23;;;;;;;26.88;12.30;;;;;;;-144.87;100.00;61487.56;4966765;28;20110;-71
2023/06/30 04:17:49;;;;;;;28.50;11.80;;;;;;;-144.87;100.00;61487.56;4966584;28;20054;-71
2023/06/30 04:20:16;;;;;;;21.35;11.85;;;;;;;-144.87;100.00;61487.56;4952069;28;20062;-71
2023/06/30 04:22:42;;;;;;;20.58;11.13;;;;;;;-144.87;100.00;61487.56;4954355;28;20031;-71
2023/06/30 04:25:09;;;;;;;31.83;10.68;;;;;;;-144.87;100.00;61487.56;4954200;28;20408;-72
2023/06/30 04:27:35;;;;;;;25.00;11.25;;;;;;;-144.87;100.00;61487.56;4967836;28;20039;-71
2023/06/30 04:30:03;;;;;;;19.13;10.55;;;;;;;-144.87;100.00;61487.56;4969135;28;20050;-71
2023/06/30 04:32:29;;;;;;;21.25;10.35;;;;;;;-144.87;100.00;61487.56;4949124;29;20058;-71
2023/06/30 04:34:58;;;;;;;19.75;8.90;;;;;;;-144.87;100.00;61487.56;4966467;28;20043;-72
2023/06/30 04:37:28;;;;;;;17.60;8.95;;;;;;;-144.87;100.00;61487.56;4972522;28;20412;-71
2023/06/30 04:39:58;;;;;;;14.93;7.22;;;;;;;-144.87;100.00;61487.56;4972811;28;20432;-72
2023/06/30 04:42:29;;;;;;;15.68;5.50;;;;;;;-144.87;100.00;61487.56;4972559;28;20035;-72
2023/06/30 04:44:55;;;;;;;14.70;4.55;;;;;;;-144.87;100.00;61487.56;4968648;28;20043;-72
2023/06/30 04:47:21;;;;;;;12.50;3.88;;;;;;;-144.87;100.00;61487.56;4972518;28;20042;-72
2023/06/30 04:49:48;;;;;;;7.97;3.63;;;;;;;-144.87;100.00;61487.56;4952838;29;20245;-71
2023/06/30 04:52:14;;;;;;;17.83;3.63;;;;;;;-144.87;100.00;61487.56;4953036;29;20078;-70
2023/06/30 04:54:41;;;;;;;13.63;4.07;;;;;;;-144.87;100.00;61487.56;4960641;28;20038;-70
2023/06/30 04:57:07;;;;;;;9.40;3.28;;;;;;;-144.87;100.00;61487.56;4971588;28;20041;-71
2023/06/30 04:59:33;;;;;;;8.45;2.90;;;;;;;-144.87;100.00;61487.56;4968645;28;20050;-72
2023/06/30 05:02:00;;;;;;;12.48;2.95;;;;;;;-144.87;100.00;61487.56;4970055;28;20078;-71
2023/06/30 05:04:26;;;;;;;9.63;3.58;;;;;;;-144.87;100.00;61487.56;4956134;28;20117;-71
2023/06/30 05:06:52;;;;;;;8.82;2.65;;;;;;;-144.87;100.00;61487.56;4973685;28;20555;-70
2023/06/30 05:09:18;;;;;;;9.35;2.78;;;;;;;-144.87;100.00;61487.56;4965948;28;20050;-70
2023/06/30 05:11:45;;;;;;;9.77;2.75;;;;;;;-144.87;100.00;61487.56;4969248;28;20043;-70
2023/06/30 05:14:11;;;;;;;9.15;2.70;;;;;;;-144.87;100.00;61487.56;4980927;28;20045;-71
2023/06/30 05:16:37;;;;;;;8.60;2.63;;;;;;;-144.87;100.00;61487.56;4967977;28;20045;-71
2023/06/30 05:19:04;;;;;;;8.10;2.20;;;;;;;-144.87;100.00;61487.56;4968806;28;20039;-71
2023/06/30 05:21:30;;;;;;;5.85;2.40;;;;;;;-144.87;100.00;61487.56;4961701;28;20052;-71
2023/06/30 05:23:56;;;;;;;9.77;2.47;;;;;;;-144.87;100.00;61487.56;4981629;28;20067;-72
2023/06/30 05:26:22;;;;;;;8.93;2.95;;;;;;;-144.87;100.00;61487.56;4979841;28;20034;-72
2023/06/30 05:28:49;;;;;;;10.45;2.92;;;;;;;-144.87;100.00;61487.56;4957836;28;20125;-72
2023/06/30 05:31:15;;;;;;;8.90;2.67;;;;;;;-144.87;100.00;61487.56;4964408;28;20050;-71
2023/06/30 05:33:41;;;;;;;10.88;2.67;;;;;;;-144.87;100.00;61487.56;4969021;28;20377;-71
2023/06/30 05:36:07;;;;;;;10.95;2.80;;;;;;;-144.87;100.00;61487.56;4980492;28;20035;-71
2023/06/30 05:38:34;;;;;;;9.80;2.63;;;;;;;-144.87;100.00;61487.56;4980992;28;20061;-73
2023/06/30 05:41:00;;;;;;;10.07;2.80;;;;;;;-144.87;100.00;61487.56;4965615;28;20031;-71
2023/06/30 05:43:26;;;;;;;13.43;3.28;;;;;;;-144.87;100.00;61487.56;4966622;28;20057;-71
2023/06/30 05:45:52;;;;;;;9.43;2.45;;;;;;;-144.87;100.00;61487.56;4965647;28;20030;-71
2023/06/30 05:48:20;;;;;;;8.52;2.58;;;;;;;-144.87;100.00;61487.56;4979293;28;20062;-71
2023/06/30 05:50:46;;;;;;;8.73;2.40;;;;;;;-144.87;100.00;61487.56;4967665;28;20042;-70
2023/06/30 05:53:12;;;;;;;10.48;2.78;;;;;;;-144.87;100.00;61487.56;4967612;28;20047;-72
2023/06/30 05:55:39;;;;;;;9.15;2.60;;;;;;;-144.87;100.00;61487.56;4968368;28;20027;-70
2023/06/30 05:58:05;;;;;;;6.60;2.20;;;;;;;-144.87;100.00;61487.56;4950594;28;20054;-70
2023/06/30 06:00:31;;;;;;;8.95;2.80;;;;;;;-144.87;100.00;61487.56;4967434;28;20034;-70
2023/06/30 06:02:58;;;;;;;7.78;2.90;;;;;;;-144.87;100.00;61487.56;4964854;28;20101;-71
2023/06/30 06:05:24;;;;;;;6.40;2.50;;;;;;;-144.87;100.00;61487.56;4980215;28;20082;-70
2023/06/30 06:07:50;;;;;;;7.78;2.38;;;;;;;-144.87;100.00;61487.56;4967118;28;20035;-72
2023/06/30 06:10:17;;;;;;;7.13;2.72;;;;;;;-144.87;100.00;61487.56;4965357;28;20126;-71
2023/06/30 06:12:46;;;;;;;9.60;2.60;;;;;;;-144.87;100.00;61487.56;4967900;28;20125;-69
2023/06/30 06:15:12;;;;;;;12.93;3.90;;;;;;;-144.87;100.00;61487.56;4962023;28;20035;-71
2023/06/30 06:17:45;;;;;;;11.93;3.22;;;;;;;-144.87;100.00;61487.56;4969279;28;20069;-71
2023/06/30 06:20:11;;;;;;;9.85;2.63;;;;;;;-144.87;100.00;61487.56;4967638;28;20037;-72
2023/06/30 06:22:38;;;;;;;10.30;2.88;;;;;;;-144.87;100.00;61487.56;4984909;28;20039;-72
2023/06/30 06:25:04;;;;;;;7.63;2.53;;;;;;;-144.87;100.00;61487.56;4967548;28;20218;-70
2023/06/30 06:27:35;;;;;;;9.00;2.53;;;;;;;-144.87;100.00;61487.56;4967353;28;20146;-70
2023/06/30 06:30:02;;;;;;;;;;;;;;;-144.87;100.00;61487.56;4965951;28;20041;-70
2023/06/30 06:32:28;;;;;;;10.75;2.58;;;;;;;-144.87;100.00;61487.56;4968424;28;19993;-70
2023/06/30 06:34:54;;;;;;;10.73;2.50;;;;;;;-144.87;100.00;61487.56;4969005;28;20034;-70
2023/06/30 06:37:21;;;;;;;9.07;2.70;;;;;;;-144.87;100.00;61487.56;4970435;28;20038;-70
2023/06/30 06:39:47;;;;;;;7.85;3.15;;;;;;;-144.87;100.00;61487.56;4970295;28;20061;-70
2023/06/30 06:42:32;;;;;;;6.22;2.33;;;;;;;-144.87;100.00;61487.56;4970080;28;20053;-70
2023/06/30 06:44:58;;;;;;;10.10;2.97;;;;;;;-144.87;100.00;61487.56;4970743;28;20038;-70
2023/06/30 06:48:18;;;;;;;12.52;2.70;;;;;;;-144.87;100.00;61487.56;4956410;28;20114;-70
2023/06/30 06:50:46;;;;;;;11.35;3.08;;;;;;;-144.87;100.00;61487.56;4929457;29;20175;-70
2023/06/30 06:53:25;;;;;;;9.48;2.63;;;;;;;-144.87;100.00;61487.56;4967825;28;20070;-70
2023/06/30 06:55:53;;;;;;;8.82;2.63;;;;;;;-144.87;100.00;61487.56;4969962;28;20404;-71
2023/06/30 06:58:20;;;;;;;8.02;2.22;;;;;;;-144.87;100.00;61487.56;4966981;28;20108;-70
2023/06/30 07:00:48;;;;;;;9.60;2.25;;;;;;;-144.87;100.00;61487.56;4966663;28;20047;-70
2023/06/30 07:03:15;;;;;;;5.35;2.40;;;;;;;-144.87;100.00;61487.56;4970189;28;20515;-70
2023/06/30 07:05:43;;;;;;;8.00;2.72;;;;;;;-144.87;100.00;61487.56;4950940;28;20069;-70
2023/06/30 07:08:10;;;;;;;8.43;2.63;;;;;;;-144.87;100.00;61487.56;4962437;28;20174;-71
2023/06/30 07:10:37;;;;;;;11.25;2.92;;;;;;;-144.87;100.00;61487.56;4964772;28;20038;-71
2023/06/30 07:13:04;;;;;;;8.70;2.67;;;;;;;-144.87;100.00;61487.56;4966435;28;20043;-70
2023/06/30 07:15:31;;;;;;;7.68;2.20;;;;;;;-144.87;100.00;61487.56;4964031;28;20066;-70
2023/06/30 07:17:57;;;;;;;9.68;2.05;;;;;;;-144.87;100.00;61487.56;4965890;28;20177;-71
2023/06/30 07:20:25;;;;;;;8.45;2.15;;;;;;;-144.87;100.00;61487.56;4966393;28;20084;-71
2023/06/30 07:22:53;;;;;;;6.55;2.08;;;;;;;-144.87;100.00;61487.56;4932500;28;20100;-71
2023/06/30 07:25:19;;;;;;;9.43;2.45;;;;;;;-144.87;100.00;61487.56;4948317;28;20024;-71
2023/06/30 07:27:53;;;;;;;6.95;2.40;;;;;;;-144.87;100.00;61487.56;4965408;28;20065;-71
2023/06/30 07:30:21;;;;;;;6.95;2.55;;;;;;;-144.87;100.00;61487.56;4960121;28;20058;-72
2023/06/30 07:32:48;;;;;;;8.05;2.20;;;;;;;-144.87;100.00;61487.56;4981087;28;20117;-71
2023/06/30 07:35:14;;;;;;;8.13;2.47;;;;;;;-144.87;100.00;61487.56;4955889;28;20075;-71
2023/06/30 07:37:40;;;;;;;7.90;2.60;;;;;;;-144.87;100.00;61487.56;4968362;28;20093;-70
2023/06/30 07:40:07;;;;;;;6.32;2.08;;;;;;;-144.87;100.00;61487.56;4967796;28;20125;-69
2023/06/30 07:42:34;;;;;;;9.18;2.28;;;;;;;-144.87;100.00;61487.56;4962902;28;20039;-70
2023/06/30 07:45:00;;;;;;;5.68;2.05;;;;;;;-144.87;100.00;61487.56;4963313;28;20074;-70
2023/06/30 07:47:26;;;;;;;6.88;2.08;;;;;;;-144.87;100.00;61487.56;4964923;28;20505;-69
2023/06/30 07:49:52;;;;;;;11.27;2.72;;;;;;;-144.87;100.00;61487.56;4964597;28;20035;-70
2023/06/30 07:52:19;;;;;;;7.97;2.50;;;;;;;-144.87;100.00;61487.56;4964379;28;20031;-70
2023/06/30 07:54:46;;;;;;;8.52;2.60;;;;;;;-144.87;100.00;61487.56;4963054;28;20031;-71
2023/06/30 07:57:12;;;;;;;13.40;3.22;;;;;;;-144.87;100.00;61487.56;4957865;28;20043;-71
2023/06/30 07:59:39;;;;;;;11.27;3.03;;;;;;;-144.87;100.00;61487.56;4966291;28;20551;-70
2023/06/30 08:02:06;;;;;;;12.75;2.95;;;;;;;-144.87;100.00;61487.56;4942909;28;20039;-70
2023/06/30 08:04:32;;;;;;;11.40;2.67;;;;;;;-144.87;100.00;61487.56;4963273;28;20051;-69
2023/06/30 08:06:58;;;;;;;10.68;3.50;;;;;;;-144.87;100.00;61487.56;4967876;28;20035;-71
2023/06/30 08:09:25;;;;;;;7.07;2.38;;;;;;;-144.87;100.00;61487.56;4967839;28;20168;-70
2023/06/30 08:11:51;;;;;;;12.55;2.85;;;;;;;-144.87;100.00;61487.56;4971244;28;20054;-70
2023/06/30 08:14:17;;;;;;;12.00;2.10;;;;;;;-144.87;100.00;61487.56;4966500;28;20058;-71
2023/06/30 08:16:44;;;;;;;5.20;2.03;;;;;;;-144.87;100.00;61487.56;4962794;28;20050;-70
2023/06/30 08:19:10;;;;;;;6.15;2.05;;;;;;;-144.87;100.00;61487.56;4973265;28;20042;-70
2023/06/30 08:21:36;;;;;;;6.68;2.30;;;;;;;-144.87;100.00;61487.56;4969226;28;20166;-70
2023/06/30 08:24:03;;;;;;;6.20;2.30;;;;;;;-144.87;100.00;61487.56;4958491;28;20051;-69
2023/06/30 08:26:29;;;;;;;7.05;2.15;;;;;;;-144.87;100.00;61487.56;4973016;28;20043;-70
2023/06/30 08:28:55;;;;;;;9.23;2.40;;;;;;;-144.87;100.00;61487.56;4974006;28;20026;-70
2023/06/30 08:31:22;;;;;;;6.60;2.20;;;;;;;-144.87;100.00;61487.56;4972560;28;20043;-71
2023/06/30 08:33:48;;;;;;;8.85;2.58;;;;;;;-144.87;100.00;61487.56;4972744;28;20129;-71
2023/06/30 08:36:14;;;;;;;9.25;2.28;;;;;;;-144.87;100.00;61487.56;4974193;28;20035;-71
2023/06/30 08:38:40;;;;;;;6.97;2.60;;;;;;;-144.87;100.00;61487.56;4969844;28;20046;-72
2023/06/30 08:41:07;;;;;;;7.55;2.20;;;;;;;-144.87;100.00;61487.56;4956552;28;20058;-72
2023/06/30 08:43:33;;;;;;;8.45;2.53;;;;;;;-144.87;100.00;61487.56;4972269;28;20051;-71
2023/06/30 08:46:03;;;;;;;5.47;2.03;;;;;;;-144.87;100.00;61487.56;4972290;28;20043;-70
2023/06/30 08:48:31;;;;;;;6.50;2.73;;;;;;;-144.87;100.00;61487.56;4955205;28;20086;-70
2023/06/30 08:50:58;;;;;;;7.45;2.13;;;;;;;-144.87;100.00;61487.56;4946485;28;20039;-70
2023/06/30 08:53:27;;;;;;;6.55;2.58;;;;;;;-144.87;100.00;61487.56;4962823;28;20081;-71
2023/06/30 08:55:56;;;;;;;6.65;2.13;;;;;;;-144.87;100.00;61487.56;4954668;28;20483;-71
2023/06/30 08:58:22;;;;;;;9.73;2.03;;;;;;;-144.87;100.00;61487.56;4968242;28;20488;-70
2023/06/30 09:00:48;;;;;;;4.10;1.90;;;;;;;-144.87;100.00;61487.56;4963073;28;20122;-70
2023/06/30 09:03:15;;;;;;;6.45;1.92;;;;;;;-144.87;100.00;61487.56;4964830;28;20035;-70
2023/06/30 09:05:43;;;;;;;4.57;1.60;;;;;;;-144.87;100.00;61487.56;4962858;28;20055;-71
2023/06/30 09:08:15;;;;;;;7.80;1.95;;;;;;;-144.87;100.00;61487.56;4966236;28;20101;-70
2023/06/30 09:10:42;;;;;;;5.90;1.85;;;;;;;-144.87;100.00;61487.56;4966650;28;20027;-70
2023/06/30 09:13:10;;;;;;;4.75;2.03;;;;;;;-144.87;100.00;61487.56;4974922;28;20475;-71
2023/06/30 09:15:36;;;;;;;6.75;1.88;;;;;;;-144.87;100.00;61487.56;4964821;28;20420;-70
2023/06/30 09:18:03;;;;;;;6.40;2.17;;;;;;;-144.87;100.00;61487.56;4964497;28;20259;-69
2023/06/30 09:20:29;;;;;;;7.65;2.70;;;;;;;-144.87;100.00;61487.56;4965559;28;20073;-70
2023/06/30 09:22:56;;;;;;;4.80;1.67;;;;;;;-144.87;100.00;61487.56;4965726;28;20046;-70
2023/06/30 09:25:35;;;;;;;7.47;2.10;;;;;;;-144.87;100.00;61487.56;4977663;28;20030;-70
2023/06/30 09:28:10;;;;;;;5.72;1.88;;;;;;;-144.87;100.00;61487.56;4969025;28;20038;-70
2023/06/30 09:30:37;;;;;;;7.53;2.20;;;;;;;-144.87;100.00;61487.56;4968492;28;20042;-68
2023/06/30 09:33:04;;;;;;;5.82;2.03;;;;;;;-144.87;100.00;61487.56;4981696;28;20476;-70
2023/06/30 09:35:38;;;;;;;5.90;1.90;;;;;;;-144.87;100.00;61487.56;4980941;28;20039;-70
2023/06/30 09:38:12;;;;;;;8.05;2.10;;;;;;;-144.87;100.00;61487.56;4956873;28;21037;-70
2023/06/30 09:40:41;;;;;;;5.85;2.03;;;;;;;-144.87;100.00;61487.56;4966771;28;20039;-71
2023/06/30 09:43:07;;;;;;;10.38;1.67;;;;;;;-144.87;100.00;61487.56;4961988;28;20417;-70
2023/06/30 09:45:34;;;;;;;6.88;2.00;;;;;;;-144.87;100.00;61487.56;4965037;28;20038;-70
2023/06/30 09:48:00;;;;;;;10.80;2.47;;;;;;;-144.87;100.00;61487.56;4968256;28;20043;-69
2023/06/30 09:50:29;;;;;;;6.32;2.25;;;;;;;-144.87;100.00;61487.56;4961138;28;20034;-73
2023/06/30 09:52:56;;;;;;;7.32;2.13;;;;;;;-144.87;100.00;61487.56;4968432;28;20093;-70
2023/06/30 09:55:22;;;;;;;6.68;2.28;;;;;;;-144.87;100.00;61487.56;4947278;28;20027;-69
2023/06/30 09:57:48;;;;;;;5.32;2.28;;;;;;;-144.87;100.00;61487.56;4971198;28;20069;-70
2023/06/30 10:00:16;;;;;;;9.15;2.78;;;;;;;-144.87;100.00;61487.56;4956524;28;20059;-69
2023/06/30 10:02:43;;;;;;;7.93;2.55;;;;;;;-144.87;100.00;61487.56;4958043;28;20031;-70
2023/06/30 10:05:12;;;;;;;6.80;2.33;;;;;;;-144.87;100.00;61487.56;4967965;28;20122;-71
2023/06/30 10:07:42;;;;;;;8.07;2.80;;;;;;;-144.87;100.00;61487.56;4959462;28;20051;-69
2023/06/30 10:10:12;;;;;;;7.33;2.33;;;;;;;-144.87;100.00;61487.56;4961718;28;20101;-70
2023/06/30 10:12:40;;;;;;;7.38;2.90;;;;;;;-144.87;100.00;61487.56;4950607;28;20089;-71
2023/06/30 10:15:09;;;;;;;9.98;2.78;;;;;;;-144.87;100.00;61487.56;4955712;28;20121;-69
2023/06/30 10:17:36;;;;;;;5.82;2.65;;;;;;;-144.87;100.00;61487.56;4965402;28;20114;-69
2023/06/30 10:20:06;;;;;;;5.88;2.40;;;;;;;-144.87;100.00;61487.56;4947529;28;20447;-69
2023/06/30 10:22:32;;;;;;;6.97;2.80;;;;;;;-144.87;100.00;61487.56;4961078;28;20066;-70
2023/06/30 10:24:59;;;;;;;7.68;2.90;;;;;;;-144.87;100.00;61487.56;4962304;28;20050;-69
2023/06/30 10:27:25;;;;;;;7.90;2.95;;;;;;;-144.87;100.00;61487.56;4966091;28;20087;-70
2023/06/30 10:29:54;;;;;;;9.18;3.45;;;;;;;-144.87;100.00;61487.56;4955292;28;20035;-71
2023/06/30 10:32:21;;;;;;;7.50;3.10;;;;;;;-144.87;100.00;61487.56;4966128;28;20034;-71
2023/06/30 10:34:50;;;;;;;10.07;2.80;;;;;;;-144.87;100.00;61487.56;4959138;28;20042;-71
2023/06/30 10:37:17;;;;;;;5.30;2.47;;;;;;;-144.87;100.00;61487.56;4967066;28;20129;-71
2023/06/30 10:39:44;;;;;;;7.82;2.67;;;;;;;-144.87;100.00;61487.56;4958535;28;20121;-72
2023/06/30 10:42:35;;;;;;;5.88;2.90;;;;;;;-144.87;100.00;61487.56;4966135;28;20046;-70
2023/06/30 10:45:02;;;;;;;8.63;2.40;;;;;;;-144.87;100.00;61487.56;4957231;28;20061;-70
2023/06/30 10:47:28;;;;;;;10.05;2.95;;;;;;;-144.87;100.00;61487.56;4968126;28;20050;-72
2023/06/30 10:49:55;;;;;;;7.82;2.97;;;;;;;-144.87;100.00;61487.56;4961927;28;20054;-70
2023/06/30 10:52:29;;;;;;;7.78;3.22;;;;;;;-144.87;100.00;61487.56;4964767;28;20031;-71
2023/06/30 10:54:55;;;;;;;7.45;3.15;;;;;;;-144.87;100.00;61487.56;4956540;28;20121;-71
2023/06/30 10:57:26;;;;;;;17.80;4.43;;;;;;;-144.87;100.00;61487.56;4962957;28;20077;-70
2023/06/30 11:00:11;;;;;;;9.80;3.20;;;;;;;-144.87;100.00;61487.56;4959764;28;20058;-73
2023/06/30 11:02:57;;;;;;;7.28;2.63;;;;;;;-144.87;100.00;61487.56;4966712;28;20042;-72
2023/06/30 11:05:26;;;;;;;9.93;3.50;;;;;;;-144.87;100.00;61487.56;4963006;28;20058;-71